createdAt,value
2017-10-20T00:00:22.983Z,84.71
2017-10-20T00:01:03.509Z,84.33
2017-10-20T00:01:44.025Z,84.14
2017-10-20T00:02:24.552Z,84.71
2017-10-20T00:03:05.162Z,84.33
2017-10-20T00:03:45.673Z,84.81
2017-10-20T00:04:26.322Z,85.1
2017-10-20T00:05:06.848Z,85.19
2017-10-20T00:05:47.490Z,85.28
2017-10-20T00:06:27.995Z,85.28
2017-10-20T00:07:08.565Z,85.58
2017-10-20T00:07:49.084Z,85.48
2017-10-20T00:08:29.626Z,85.48
2017-10-20T00:09:10.256Z,85.38
2017-10-20T00:09:50.843Z,85.28
2017-10-20T00:10:31.441Z,85
2017-10-20T00:11:12.005Z,85.1
2017-10-20T00:11:52.511Z,85.28
2017-10-20T00:12:33.078Z,85.28
2017-10-20T00:13:13.594Z,85.19
2017-10-20T00:13:54.243Z,84.81
2017-10-20T00:14:34.738Z,84.91
2017-10-20T00:15:15.229Z,84.91
2017-10-20T00:15:55.782Z,84.81
2017-10-20T00:16:36.420Z,84.91
2017-10-20T00:17:16.991Z,84.81
2017-10-20T00:17:57.590Z,84.61
2017-10-20T00:18:38.122Z,84.71
2017-10-20T00:19:18.624Z,85.1
2017-10-20T00:19:59.160Z,84.71
2017-10-20T00:20:39.765Z,84.71
2017-10-20T00:21:20.273Z,85
2017-10-20T00:22:00.773Z,84.71
2017-10-20T00:22:41.312Z,84.91
2017-10-20T00:23:21.856Z,84.81
2017-10-20T00:24:02.406Z,85
2017-10-20T00:24:42.905Z,84.14
2017-10-20T00:25:23.434Z,84.52
2017-10-20T00:26:03.981Z,84.33
2017-10-20T00:26:44.477Z,84.42
2017-10-20T00:27:24.995Z,84.52
2017-10-20T00:28:05.588Z,84.91
2017-10-20T00:28:46.138Z,84.33
2017-10-20T00:29:26.665Z,84.42
2017-10-20T00:30:07.206Z,84.42
2017-10-20T00:30:47.795Z,85.14
2017-10-20T00:31:28.355Z,84.33
2017-10-20T00:32:08.941Z,85.14
2017-10-20T00:32:49.431Z,84.52
2017-10-20T00:33:30.020Z,84.14
2017-10-20T00:34:10.541Z,83.94
2017-10-20T00:34:51.998Z,84.71
2017-10-20T00:35:32.472Z,83.85
2017-10-20T00:36:13.024Z,84.14
2017-10-20T00:36:53.606Z,84.23
2017-10-20T00:37:34.257Z,84.33
2017-10-20T00:38:14.699Z,83.85
2017-10-20T00:38:55.270Z,83.94
2017-10-20T00:39:35.819Z,83.94
2017-10-20T00:40:16.400Z,83.47
2017-10-20T00:40:56.982Z,84.04
2017-10-20T00:41:37.526Z,83.94
2017-10-20T00:42:18.118Z,84.52
2017-10-20T00:42:58.641Z,84.42
2017-10-20T00:43:39.130Z,84.23
2017-10-20T00:44:19.727Z,84.04
2017-10-20T00:45:00.280Z,84.52
2017-10-20T00:45:40.803Z,84.04
2017-10-20T00:46:21.311Z,84.14
2017-10-20T00:47:01.852Z,83.85
2017-10-20T00:47:42.442Z,83.94
2017-10-20T00:48:22.972Z,84.23
2017-10-20T00:49:03.534Z,83.85
2017-10-20T00:49:44.063Z,83.85
2017-10-20T00:50:24.618Z,84.71
2017-10-20T00:51:05.117Z,83.85
2017-10-20T00:51:45.655Z,84.52
2017-10-20T00:52:26.232Z,84.14
2017-10-20T00:53:06.834Z,84.14
2017-10-20T00:53:47.308Z,84.14
2017-10-20T00:54:27.843Z,84.42
2017-10-20T00:55:08.326Z,84.52
2017-10-20T00:55:48.904Z,84.04
2017-10-20T00:56:29.441Z,84.52
2017-10-20T00:57:09.947Z,84.14
2017-10-20T00:57:50.491Z,84.04
2017-10-20T00:58:31.088Z,84.14
2017-10-20T00:59:11.592Z,84.52
2017-10-20T00:59:52.146Z,84.04
2017-10-20T01:00:32.646Z,84.14
2017-10-20T01:01:13.179Z,84.14
2017-10-20T01:01:53.776Z,84.04
2017-10-20T01:02:34.297Z,84.04
2017-10-20T01:03:14.849Z,84.33
2017-10-20T01:03:55.403Z,84.04
2017-10-20T01:04:35.969Z,84.42
2017-10-20T01:05:16.501Z,84.33
2017-10-20T01:05:57.098Z,83.75
2017-10-20T01:06:37.696Z,84.42
2017-10-20T01:07:18.203Z,84.33
2017-10-20T01:07:58.710Z,84.14
2017-10-20T01:08:39.271Z,84.52
2017-10-20T01:09:19.829Z,84.33
2017-10-20T01:10:00.361Z,84.04
2017-10-20T01:10:40.897Z,84.71
2017-10-20T01:11:21.471Z,83.85
2017-10-20T01:12:01.941Z,84.04
2017-10-20T01:12:42.491Z,83.94
2017-10-20T01:13:23.062Z,84.52
2017-10-20T01:14:03.572Z,84.14
2017-10-20T01:14:44.095Z,84.33
2017-10-20T01:15:24.634Z,84.33
2017-10-20T01:16:05.198Z,84.91
2017-10-20T01:16:45.747Z,84.71
2017-10-20T01:17:26.302Z,85
2017-10-20T01:18:06.834Z,85.05
2017-10-20T01:18:47.338Z,84.95
2017-10-20T01:19:27.959Z,85.1
2017-10-20T01:20:08.517Z,85.25
2017-10-20T01:20:49.036Z,85.53
2017-10-20T01:21:29.609Z,86.01
2017-10-20T01:22:10.165Z,85.63
2017-10-20T01:22:50.689Z,86.21
2017-10-20T01:23:31.181Z,86.3
2017-10-20T01:24:11.906Z,86.4
2017-10-20T01:24:52.528Z,86.4
2017-10-20T01:25:33.039Z,86.3
2017-10-20T01:26:13.580Z,86.21
2017-10-20T01:26:54.535Z,86.4
2017-10-20T01:27:35.086Z,86.11
2017-10-20T01:28:15.599Z,85.72
2017-10-20T01:28:56.191Z,86.11
2017-10-20T01:29:36.700Z,86.49
2017-10-20T01:30:18.746Z,86.3
2017-10-20T01:30:58.470Z,86.3
2017-10-20T01:31:39.827Z,86.21
2017-10-20T01:32:20.143Z,86.88
2017-10-20T01:33:00.692Z,86.21
2017-10-20T01:33:41.692Z,86.3
2017-10-20T01:34:22.579Z,86.4
2017-10-20T01:35:03.140Z,86.3
2017-10-20T01:35:43.760Z,86.49
2017-10-20T01:36:24.293Z,86.97
2017-10-20T01:37:10.158Z,86.78
2017-10-20T01:53:32.610Z,87.16
2017-10-20T01:54:22.918Z,87.16
2017-10-20T01:55:12.227Z,86.49
2017-10-20T01:55:58.412Z,87.07
2017-10-20T01:56:44.457Z,87.07
2017-10-20T01:57:30.538Z,86.97
2017-10-20T01:58:16.996Z,86.88
2017-10-20T01:59:04.739Z,87.07
2017-10-20T01:59:52.983Z,87.16
2017-10-20T02:00:39.618Z,86.97
2017-10-20T02:01:27.572Z,87.16
2017-10-20T02:02:16.111Z,86.97
2017-10-20T02:03:05.951Z,87.02
2017-10-20T02:03:51.908Z,87.16
2017-10-20T02:04:33.902Z,86.93
2017-10-20T02:05:14.424Z,86.97
2017-10-20T02:05:54.910Z,86.97
2017-10-20T02:06:35.444Z,86.58
2017-10-20T02:07:16.001Z,86.78
2017-10-20T02:07:56.626Z,86.49
2017-10-20T02:08:37.115Z,86.97
2017-10-20T02:09:17.685Z,86.83
2017-10-20T02:09:58.186Z,86.68
2017-10-20T02:10:38.735Z,86.68
2017-10-20T02:11:25.206Z,86.58
2017-10-20T02:12:13.097Z,86.58
2017-10-20T02:13:01.779Z,86.78
2017-10-20T02:13:48.578Z,86.49
2017-10-20T02:14:38.311Z,86.49
2017-10-20T02:15:26.876Z,85.92
2017-10-20T02:16:19.793Z,86.11
2017-10-20T02:21:54.389Z,85.67
2017-10-20T02:22:35.085Z,85.48
2017-10-20T02:23:15.597Z,85.05
2017-10-20T02:23:56.228Z,85.53
2017-10-20T02:24:36.623Z,85.44
2017-10-20T02:25:17.202Z,85.19
2017-10-20T02:25:57.746Z,85.96
2017-10-20T02:26:38.255Z,85.1
2017-10-20T02:27:18.847Z,85.28
2017-10-20T02:27:59.410Z,85.19
2017-10-20T02:28:39.981Z,85.48
2017-10-20T02:29:20.495Z,85.1
2017-10-20T02:30:01.012Z,85.48
2017-10-20T02:30:41.558Z,84.81
2017-10-20T02:31:22.051Z,85.28
2017-10-20T02:32:02.625Z,85.28
2017-10-20T02:32:43.133Z,85.28
2017-10-20T02:33:23.777Z,84.81
2017-10-20T02:34:04.365Z,85
2017-10-20T02:34:44.889Z,84.81
2017-10-20T02:35:25.419Z,84.81
2017-10-20T02:36:05.955Z,84.71
2017-10-20T02:36:46.470Z,84.91
2017-10-20T02:37:27.094Z,84.91
2017-10-20T02:38:07.569Z,84.33
2017-10-20T02:38:48.111Z,84.42
2017-10-20T02:39:28.671Z,84.14
2017-10-20T02:40:09.178Z,84.42
2017-10-20T02:40:49.720Z,84.33
2017-10-20T02:41:30.343Z,85.1
2017-10-20T02:42:10.897Z,85
2017-10-20T02:42:51.458Z,84.81
2017-10-20T02:43:31.995Z,85
2017-10-20T02:44:12.520Z,84.81
2017-10-20T02:44:53.038Z,84.81
2017-10-20T02:45:33.608Z,84.61
2017-10-20T02:46:14.123Z,84.33
2017-10-20T02:46:54.708Z,84.52
2017-10-20T02:47:35.334Z,84.91
2017-10-20T02:48:15.789Z,85
2017-10-20T02:48:56.311Z,84.71
2017-10-20T02:49:36.861Z,85.19
2017-10-20T02:50:17.355Z,85.48
2017-10-20T02:50:57.972Z,85.48
2017-10-20T02:51:38.433Z,85.58
2017-10-20T02:52:19.018Z,85.1
2017-10-20T02:52:59.537Z,85.38
2017-10-20T02:53:40.083Z,85
2017-10-20T02:54:20.689Z,84.81
2017-10-20T02:55:01.192Z,85.1
2017-10-20T02:55:41.701Z,84.23
2017-10-20T02:56:22.298Z,84.91
2017-10-20T02:57:02.833Z,84.81
2017-10-20T02:57:43.404Z,84.81
2017-10-20T02:58:23.905Z,85
2017-10-20T03:45:02.373Z,83.94
2017-10-20T03:45:46.384Z,84.42
2017-10-20T03:46:28.115Z,84.33
2017-10-20T03:47:10.102Z,84.71
2017-10-20T03:47:50.929Z,84
2017-10-20T03:48:33.045Z,84.61
2017-10-20T03:49:16.143Z,84.42
2017-10-20T03:49:57.016Z,84.28
2017-10-20T03:50:39.207Z,84.09
2017-10-20T03:51:21.466Z,84.58
2017-10-20T03:52:02.730Z,84.86
2017-10-20T03:52:44.411Z,85
2017-10-20T03:53:26.392Z,84.28
2017-10-20T03:54:13.391Z,84.52
2017-10-20T03:55:05.959Z,84.14
2017-10-20T05:06:27.989Z,84.91
2017-10-20T05:07:08.763Z,84.71
2017-10-20T05:07:49.284Z,84.95
2017-10-20T05:08:29.864Z,85.1
2017-10-20T05:09:10.400Z,84.77
2017-10-20T05:09:50.970Z,85.28
2017-10-20T05:10:31.482Z,85.25
2017-10-20T05:11:12.014Z,85.25
2017-10-20T05:11:52.573Z,85.34
2017-10-20T05:12:33.075Z,85.48
2017-10-20T05:13:13.619Z,85.05
2017-10-20T05:13:54.153Z,85.1
2017-10-20T05:14:34.748Z,85.1
2017-10-20T05:15:15.295Z,85.44
2017-10-20T05:15:55.838Z,85.48
2017-10-20T05:16:36.348Z,85.38
2017-10-20T05:17:16.906Z,86.25
2017-10-20T05:17:57.443Z,87.07
2017-10-20T05:18:37.921Z,87.11
2017-10-20T05:19:18.502Z,87.21
2017-10-20T05:19:59.015Z,86.82
2017-10-20T05:20:39.646Z,86.92
2017-10-20T05:21:20.366Z,86.44
2017-10-20T05:22:01.166Z,86.92
2017-10-20T05:22:41.748Z,86.92
2017-10-20T05:23:22.535Z,86.44
2017-10-20T05:24:03.177Z,85.86
2017-10-20T05:24:43.948Z,86.15
2017-10-20T05:25:24.391Z,86.34
2017-10-20T05:26:04.968Z,86.38
2017-10-20T05:26:45.517Z,86.15
2017-10-20T05:27:26.086Z,86.29
2017-10-20T05:28:06.753Z,86.54
2017-10-20T05:28:47.325Z,86.77
2017-10-20T05:29:27.905Z,87.05
2017-10-20T05:30:08.402Z,87.05
2017-10-20T05:30:48.910Z,87.73
2017-10-20T05:31:29.517Z,87.15
2017-10-20T05:32:10.206Z,87.73
2017-10-20T05:32:50.838Z,86.96
2017-10-20T05:33:31.374Z,88.59
2017-10-20T05:34:12.212Z,95.21
2017-10-20T05:34:53.056Z,95.79
2017-10-20T05:35:33.766Z,96.27
2017-10-20T05:36:14.798Z,96.37
2017-10-20T05:36:55.720Z,96.66
2017-10-20T05:37:36.180Z,96.08
2017-10-20T05:38:16.708Z,94.69
2017-10-20T05:38:57.256Z,94.26
2017-10-20T05:39:37.802Z,94.16
2017-10-20T05:40:18.380Z,94.45
2017-10-20T05:40:59.001Z,92.43
2017-10-20T05:41:39.546Z,90.03
2017-10-20T05:42:20.132Z,88.4
2017-10-20T05:43:00.673Z,87.63
2017-10-20T05:43:41.260Z,87.05
2017-10-20T05:44:21.817Z,86.1
2017-10-20T05:45:02.312Z,86.19
2017-10-20T05:45:42.973Z,85.24
2017-10-20T05:46:23.395Z,85.24
2017-10-20T05:47:04.011Z,84.85
2017-10-20T05:47:45.362Z,84.85
2017-10-20T05:48:27.138Z,84.47
2017-10-20T05:49:08.418Z,84.18
2017-10-20T05:49:51.933Z,83.89
2017-10-20T05:50:32.465Z,84.08
2017-10-20T05:51:13.033Z,84.37
2017-10-20T05:51:53.666Z,84.47
2017-10-20T05:52:34.160Z,84.56
2017-10-20T05:53:14.755Z,83.89
2017-10-20T05:53:55.311Z,84.08
2017-10-20T05:54:36.933Z,84.03
2017-10-20T05:55:17.447Z,83.98
2017-10-20T05:55:58.010Z,83.8
2017-10-20T05:56:38.521Z,84.18
2017-10-20T05:57:19.101Z,83.36
2017-10-20T05:57:59.734Z,83.84
2017-10-20T05:58:40.829Z,83.26
2017-10-20T05:59:21.758Z,83.98
2017-10-20T06:00:02.702Z,83.84
2017-10-20T06:00:43.264Z,83.16
2017-10-20T06:01:24.027Z,90.66
2017-10-20T06:02:04.529Z,99.58
2017-10-20T06:02:45.072Z,99.68
2017-10-20T06:03:25.646Z,99.99
2017-10-20T06:04:06.189Z,99.99
2017-10-20T06:04:47.027Z,99.99
2017-10-20T06:05:27.534Z,99.99
2017-10-20T06:06:08.054Z,99.99
2017-10-20T06:06:48.621Z,99.99
2017-10-20T06:07:29.125Z,99.99
2017-10-20T06:08:09.689Z,99.99
2017-10-20T06:08:50.757Z,99.99
2017-10-20T06:09:31.281Z,99.99
2017-10-20T06:10:11.912Z,99.99
2017-10-20T06:10:52.363Z,99.99
2017-10-20T06:11:33.012Z,99.99
2017-10-20T06:12:14.124Z,99.99
2017-10-20T06:12:55.082Z,99.99
2017-10-20T06:13:35.639Z,99.99
2017-10-20T06:14:16.265Z,99.99
2017-10-20T06:14:56.829Z,99.99
2017-10-20T06:15:37.393Z,99.99
2017-10-20T06:16:17.921Z,99.99
2017-10-20T06:16:58.579Z,99.99
2017-10-20T06:17:39.074Z,99.99
2017-10-20T06:18:19.662Z,99.99
2017-10-20T06:19:00.207Z,99.99
2017-10-20T06:19:40.785Z,99.99
2017-10-20T06:20:21.352Z,99.99
2017-10-20T06:21:04.046Z,94.88
2017-10-20T06:21:44.836Z,92.43
2017-10-20T06:22:25.416Z,90.08
2017-10-20T06:23:05.899Z,87.68
2017-10-20T06:23:46.468Z,88.06
2017-10-20T06:24:27.543Z,94.06
2017-10-20T06:25:08.069Z,97.52
2017-10-20T06:25:48.821Z,99.99
2017-10-20T06:26:29.381Z,99.99
2017-10-20T06:27:10.709Z,99.99
2017-10-20T06:27:51.281Z,99.97
2017-10-20T06:28:31.888Z,99.3
2017-10-20T06:29:12.414Z,99.87
2017-10-20T06:29:52.929Z,99.1
2017-10-20T06:30:33.455Z,97.57
2017-10-20T06:31:14.006Z,95.65
2017-10-20T06:31:54.543Z,94.31
2017-10-20T06:32:35.112Z,94.31
2017-10-20T06:33:15.611Z,94.31
2017-10-20T06:33:56.251Z,94.11
2017-10-20T06:34:37.298Z,91.42
2017-10-20T06:35:17.845Z,88.16
2017-10-20T06:35:58.368Z,87.68
2017-10-20T06:36:38.846Z,87.39
2017-10-20T06:37:19.426Z,86.52
2017-10-20T06:38:00.378Z,85.85
2017-10-20T06:38:41.049Z,85.18
2017-10-20T06:39:21.606Z,84.99
2017-10-20T06:40:02.121Z,84.41
2017-10-20T06:40:42.924Z,84.31
2017-10-20T06:41:23.235Z,84.03
2017-10-20T06:42:03.740Z,83.64
2017-10-20T06:42:44.251Z,83.64
2017-10-20T06:43:24.884Z,84.22
2017-10-20T06:44:05.401Z,84.03
2017-10-20T06:44:46.099Z,83.89
2017-10-20T06:45:27.252Z,84.51
2017-10-20T06:46:08.678Z,84.89
2017-10-20T06:46:49.250Z,84.8
2017-10-20T06:47:30.177Z,84.7
2017-10-20T06:48:10.986Z,84.89
2017-10-20T06:48:51.677Z,85.08
2017-10-20T06:49:32.779Z,85.37
2017-10-20T06:50:13.679Z,85.28
2017-10-20T06:50:54.543Z,85.18
2017-10-20T06:51:35.056Z,85.37
2017-10-20T06:52:15.624Z,85.28
2017-10-20T06:52:56.189Z,85.57
2017-10-20T06:53:36.801Z,87.49
2017-10-20T06:54:17.269Z,92.86
2017-10-20T06:54:57.838Z,96.99
2017-10-20T06:55:38.457Z,98.39
2017-10-20T06:56:19.007Z,99.99
2017-10-20T06:56:59.554Z,99.99
2017-10-20T06:57:40.139Z,99.73
2017-10-20T06:58:20.642Z,96.99
2017-10-20T06:59:01.185Z,96.03
2017-10-20T06:59:41.748Z,96.03
2017-10-20T07:00:22.342Z,95.55
2017-10-20T07:01:02.856Z,95.26
2017-10-20T07:01:43.415Z,97.28
2017-10-20T07:02:23.908Z,99.2
2017-10-20T07:03:04.535Z,95.84
2017-10-20T07:03:45.073Z,90.75
2017-10-20T07:04:25.574Z,89.02
2017-10-20T07:05:06.182Z,87.58
2017-10-20T07:05:46.729Z,85.18
2017-10-20T07:06:27.271Z,84.7
2017-10-20T07:07:07.875Z,85.28
2017-10-20T07:07:48.528Z,85.18
2017-10-20T07:08:29.066Z,92.43
2017-10-20T07:09:09.591Z,98.77
2017-10-20T07:09:50.164Z,99.83
2017-10-20T07:10:30.765Z,99.99
2017-10-20T07:11:11.280Z,99.99
2017-10-20T07:11:51.925Z,99.99
2017-10-20T07:12:32.470Z,99.99
2017-10-20T07:13:13.267Z,99.99
2017-10-20T07:13:53.752Z,99.99
2017-10-20T07:14:34.285Z,99.99
2017-10-20T07:15:14.823Z,99.99
2017-10-20T07:15:55.337Z,99.99
2017-10-20T07:16:35.919Z,99.99
2017-10-20T07:17:16.617Z,99.99
2017-10-20T07:17:57.166Z,99.99
2017-10-20T07:18:37.705Z,99.99
2017-10-20T07:19:18.478Z,99.99
2017-10-20T07:19:59.531Z,99.99
2017-10-20T07:20:40.432Z,99.99
2017-10-20T07:21:21.279Z,99.99
2017-10-20T07:22:02.105Z,99.99
2017-10-20T07:22:42.481Z,99.99
2017-10-20T07:23:23.329Z,99.99
2017-10-20T07:24:06.028Z,99.99
2017-10-20T07:31:41.030Z,99.99
2017-10-20T07:37:56.282Z,87.43
2017-10-20T07:38:39.309Z,98.86
2017-10-20T07:39:19.773Z,99.99
2017-10-20T07:40:03.602Z,99.99
2017-10-20T07:40:46.398Z,99.99
2017-10-20T07:41:31.870Z,99.99
2017-10-20T07:42:18.101Z,99.99
2017-10-20T07:43:00.533Z,99.99
2017-10-20T07:43:46.004Z,99.99
2017-10-20T07:50:19.696Z,88.2
2017-10-20T07:51:04.397Z,85.65
2017-10-20T07:54:40.492Z,83.49
2017-10-20T07:55:21.048Z,82.38
2017-10-20T07:56:01.803Z,85.71
2017-10-20T07:56:42.332Z,95.07
2017-10-20T07:57:22.845Z,97.96
2017-10-20T07:58:03.436Z,98.24
2017-10-20T07:58:43.922Z,99.68
2017-10-20T07:59:24.518Z,99.01
2017-10-20T08:00:05.079Z,99.11
2017-10-20T08:00:45.642Z,97.28
2017-10-20T08:01:26.410Z,99.3
2017-10-20T08:02:06.932Z,99.4
2017-10-20T08:02:47.488Z,98.82
2017-10-20T08:03:28.044Z,98.05
2017-10-20T08:04:08.566Z,96.9
2017-10-20T08:04:49.081Z,97.67
2017-10-20T08:05:29.591Z,90.65
2017-10-20T08:06:10.176Z,90.94
2017-10-20T08:06:50.717Z,88.92
2017-10-20T08:07:31.255Z,94.3
2017-10-20T08:08:11.800Z,96.7
2017-10-20T08:08:52.390Z,92.38
2017-10-20T08:09:34.307Z,86.42
2017-10-20T08:10:14.831Z,83.53
2017-10-20T08:10:55.419Z,82.57
2017-10-20T08:11:35.945Z,81.99
2017-10-20T08:12:16.510Z,81.42
2017-10-20T08:12:57.042Z,81.81
2017-10-20T08:13:37.548Z,80.84
2017-10-20T08:14:18.057Z,80.65
2017-10-20T08:14:58.606Z,81.04
2017-10-20T08:15:39.149Z,87.29
2017-10-20T08:16:19.665Z,85.27
2017-10-20T08:17:00.237Z,87.48
2017-10-20T08:17:40.875Z,90.36
2017-10-20T08:18:21.409Z,88.92
2017-10-20T08:19:02.160Z,87.29
2017-10-20T08:19:42.760Z,89.3
2017-10-20T08:20:23.319Z,89.5
2017-10-20T08:21:03.989Z,86.9
2017-10-20T08:21:45.024Z,81.71
2017-10-20T08:22:25.803Z,81.52
2017-10-20T08:23:07.157Z,81.52
2017-10-20T08:23:49.297Z,81.81
2017-10-20T08:24:29.949Z,87.48
2017-10-20T08:25:10.356Z,86.8
2017-10-20T08:25:51.086Z,88.92
2017-10-20T08:26:34.829Z,89.5
2017-10-20T08:27:15.611Z,89.11
2017-10-20T08:27:57.024Z,89.98
2017-10-20T08:28:37.717Z,88.63
2017-10-20T08:29:18.399Z,87.86
2017-10-20T08:29:59.803Z,86.04
2017-10-20T08:30:54.900Z,89.98
2017-10-20T08:31:43.984Z,89.4
2017-10-20T08:40:54.251Z,95.6
2017-10-20T08:41:34.733Z,93.05
2017-10-20T08:42:15.347Z,94.54
2017-10-20T08:42:55.833Z,93.38
2017-10-20T08:43:36.533Z,93.96
2017-10-20T08:44:16.988Z,92.96
2017-10-20T08:44:57.585Z,91.56
2017-10-20T08:45:38.129Z,90.79
2017-10-20T08:46:18.746Z,91.94
2017-10-20T08:46:59.276Z,91.56
2017-10-20T08:47:39.818Z,92.71
2017-10-20T08:48:20.451Z,92.91
2017-10-20T08:49:00.935Z,93
2017-10-20T08:49:41.490Z,92.71
2017-10-20T08:50:22.273Z,92.43
2017-10-20T08:51:02.734Z,92.52
2017-10-20T08:51:43.535Z,90.69
2017-10-20T08:52:24.771Z,89.92
2017-10-20T08:53:06.184Z,89.83
2017-10-20T08:53:49.595Z,90.02
2017-10-20T08:54:34.613Z,89.64
2017-10-20T08:55:15.706Z,88.1
2017-10-20T08:55:56.338Z,87.13
2017-10-20T08:56:36.901Z,87.71
2017-10-20T08:57:17.683Z,87.33
2017-10-20T08:57:58.452Z,86.36
2017-10-20T08:58:38.957Z,86.18
2017-10-20T08:59:19.496Z,86.04
2017-10-20T09:00:00.042Z,84.83
2017-10-20T09:00:40.547Z,84.69
2017-10-20T09:01:21.094Z,85.55
2017-10-20T09:02:01.626Z,84.3
2017-10-20T09:02:42.221Z,83.77
2017-10-20T09:03:22.826Z,85.78
2017-10-20T09:04:03.466Z,89.73
2017-10-20T09:04:44.021Z,90.79
2017-10-20T09:05:24.552Z,91.27
2017-10-20T09:06:05.137Z,87.9
2017-10-20T09:06:45.630Z,88.39
2017-10-20T09:07:26.226Z,90.21
2017-10-20T09:08:06.702Z,91.75
2017-10-20T09:08:47.267Z,92.13
2017-10-20T09:09:27.847Z,92.33
2017-10-20T09:10:08.407Z,92.43
2017-10-20T09:10:48.994Z,93.87
2017-10-20T09:11:30.837Z,93.48
2017-10-20T09:12:21.761Z,90.59
2017-10-20T09:13:13.707Z,90.73
2017-10-20T09:16:27.569Z,89.78
2017-10-20T09:17:12.702Z,91.51
2017-10-20T09:17:53.420Z,93.72
2017-10-20T09:18:35.225Z,93.72
2017-10-20T09:19:19.979Z,93.33
2017-10-20T09:20:02.440Z,88.53
2017-10-20T09:22:01.142Z,85.44
2017-10-20T09:22:42.441Z,87.46
2017-10-20T09:23:23.214Z,86.02
2017-10-20T09:24:04.983Z,86.99
2017-10-20T09:24:49.051Z,80.25
2017-10-20T09:25:30.148Z,84.19
2017-10-20T09:26:10.945Z,85.16
2017-10-20T09:26:54.090Z,87.95
2017-10-20T09:27:34.492Z,91.03
2017-10-20T09:28:14.959Z,81.88
2017-10-20T09:28:55.739Z,88.43
2017-10-20T09:29:36.247Z,88.62
2017-10-20T09:30:17.726Z,90.06
2017-10-20T09:30:58.370Z,89.58
2017-10-20T09:31:38.905Z,87.66
2017-10-20T09:32:19.453Z,88.14
2017-10-20T09:33:00.034Z,84.81
2017-10-20T09:33:41.295Z,89.24
2017-10-20T09:34:21.849Z,88.18
2017-10-20T09:35:02.533Z,86.65
2017-10-20T09:35:43.147Z,86.16
2017-10-20T09:36:23.839Z,86.35
2017-10-20T09:37:04.585Z,88.76
2017-10-20T09:37:46.128Z,88.09
2017-10-20T09:38:26.636Z,88.28
2017-10-20T09:39:07.199Z,87.03
2017-10-20T09:39:47.686Z,88.18
2017-10-20T09:40:28.653Z,87.7
2017-10-20T09:41:08.970Z,83.14
2017-10-20T09:41:49.826Z,80.92
2017-10-20T09:42:30.502Z,82.75
2017-10-20T09:43:11.114Z,83.29
2017-10-20T09:43:52.342Z,87.9
2017-10-20T09:44:36.322Z,89.15
2017-10-20T09:45:17.126Z,88.39
2017-10-20T09:45:57.588Z,88
2017-10-20T09:46:38.195Z,87.71
2017-10-20T09:47:20.281Z,88.67
2017-10-20T09:48:01.243Z,88.29
2017-10-20T09:48:44.040Z,87.71
2017-10-20T09:49:25.399Z,86.36
2017-10-20T09:50:09.948Z,88.19
2017-10-20T09:50:50.693Z,87.33
2017-10-20T09:51:31.272Z,88.29
2017-10-20T09:52:13.146Z,93.77
2017-10-20T09:52:54.452Z,95.79
2017-10-20T09:56:16.597Z,88.57
2017-10-20T09:56:57.583Z,85.98
2017-10-20T09:57:38.166Z,88.77
2017-10-20T09:59:53.235Z,87.95
2017-10-20T10:00:34.121Z,88.14
2017-10-20T10:01:19.426Z,86.02
2017-10-20T10:02:04.833Z,87.13
2017-10-20T10:02:45.950Z,89.2
2017-10-20T10:03:29.423Z,85.93
2017-10-20T10:04:15.711Z,89.2
2017-10-20T10:04:56.370Z,90.16
2017-10-20T10:05:36.995Z,89.49
2017-10-20T10:06:19.785Z,88.91
2017-10-20T10:07:00.537Z,89.2
2017-10-20T10:07:41.241Z,89.2
2017-10-20T10:08:21.729Z,89.1
2017-10-20T10:09:02.627Z,89.78
2017-10-20T10:09:44.051Z,89.01
2017-10-20T10:10:23.660Z,89.29
2017-10-20T10:11:04.266Z,89.58
2017-10-20T10:11:44.858Z,89.87
2017-10-20T10:12:25.463Z,89.58
2017-10-20T10:13:06.094Z,89.97
2017-10-20T10:13:46.830Z,91.56
2017-10-20T10:14:28.045Z,91.56
2017-10-20T10:15:08.464Z,91.6
2017-10-20T10:15:49.042Z,91.13
2017-10-20T10:16:29.593Z,90.89
2017-10-20T10:17:10.148Z,90.83
2017-10-20T10:17:50.755Z,91.13
2017-10-20T10:18:31.288Z,90.26
2017-10-20T10:19:11.819Z,90.26
2017-10-20T10:19:52.394Z,90.64
2017-10-20T10:20:33.232Z,90.35
2017-10-20T10:21:13.611Z,90.06
2017-10-20T10:21:54.679Z,88.81
2017-10-20T10:22:35.294Z,89.39
2017-10-20T10:23:15.960Z,90.26
2017-10-20T10:23:56.500Z,88.91
2017-10-20T10:24:37.141Z,89.78
2017-10-20T10:25:17.760Z,88.24
2017-10-20T10:25:58.336Z,88.24
2017-10-20T10:26:38.933Z,88.53
2017-10-20T10:27:19.558Z,88.91
2017-10-20T10:28:00.088Z,88.33
2017-10-20T10:28:40.626Z,87.37
2017-10-20T10:29:21.219Z,87.27
2017-10-20T10:30:01.791Z,87.95
2017-10-20T10:30:42.354Z,84
2017-10-20T10:31:22.977Z,85.35
2017-10-20T10:32:03.566Z,86.6
2017-10-20T10:32:44.168Z,86.89
2017-10-20T10:33:24.779Z,87.66
2017-10-20T10:34:05.315Z,87.37
2017-10-20T10:34:46.443Z,87.66
2017-10-20T10:35:27.225Z,87.18
2017-10-20T10:36:07.959Z,86.79
2017-10-20T10:36:51.611Z,87.08
2017-10-20T10:37:32.262Z,87.56
2017-10-20T10:38:12.823Z,87.37
2017-10-20T10:38:53.436Z,87.37
2017-10-20T10:39:33.985Z,87.85
2017-10-20T10:40:15.133Z,88.43
2017-10-20T10:40:55.804Z,86.99
2017-10-20T10:41:36.350Z,86.89
2017-10-20T10:42:16.979Z,86.99
2017-10-20T10:42:57.533Z,88.04
2017-10-20T10:43:38.073Z,90.93
2017-10-20T10:44:18.661Z,91.8
2017-10-20T10:44:59.288Z,89.1
2017-10-20T10:45:39.811Z,86.02
2017-10-20T10:46:20.433Z,87.46
2017-10-20T10:47:01.062Z,87.95
2017-10-20T10:47:41.609Z,87.37
2017-10-20T10:48:22.221Z,85.83
2017-10-20T10:49:02.853Z,84.43
2017-10-20T10:49:43.453Z,83.52
2017-10-20T10:50:24.009Z,82.17
2017-10-20T10:51:04.609Z,85.64
2017-10-20T10:51:45.128Z,86.99
2017-10-20T10:52:25.733Z,89.49
2017-10-20T10:53:06.260Z,86.22
2017-10-20T10:53:46.841Z,84.62
2017-10-20T10:54:27.399Z,90.2
2017-10-20T10:55:08.027Z,91.46
2017-10-20T10:55:48.616Z,92.61
2017-10-20T10:56:29.162Z,93.19
2017-10-20T10:57:09.694Z,91.55
2017-10-20T10:57:50.322Z,91.07
2017-10-20T10:58:30.854Z,88.9
2017-10-20T10:59:11.396Z,87.84
2017-10-20T10:59:51.948Z,87.03
2017-10-20T11:00:32.520Z,86.16
2017-10-20T11:01:13.119Z,88.85
2017-10-20T11:01:53.681Z,91.41
2017-10-20T11:02:34.260Z,86.4
2017-10-20T11:03:14.862Z,83.47
2017-10-20T11:03:55.383Z,82.5
2017-10-20T11:04:35.959Z,86.35
2017-10-20T11:05:18.262Z,89.09
2017-10-20T11:05:58.811Z,83.28
2017-10-20T11:06:39.351Z,80.77
2017-10-20T11:07:19.915Z,85.58
2017-10-20T11:08:00.503Z,87.22
2017-10-20T11:08:41.106Z,89.29
2017-10-20T11:09:21.611Z,83.61
2017-10-20T11:10:02.147Z,81.48
2017-10-20T11:10:42.715Z,85.14
2017-10-20T11:11:23.293Z,80.81
2017-10-20T11:12:03.841Z,82.26
2017-10-20T11:12:44.386Z,84.09
2017-10-20T11:13:24.943Z,86.59
2017-10-20T11:14:05.469Z,85.43
2017-10-20T11:14:46.059Z,82.16
2017-10-20T11:15:26.550Z,83.89
2017-10-20T11:16:07.151Z,82.16
2017-10-20T11:16:47.665Z,82.93
2017-10-20T11:17:28.227Z,79.61
2017-10-20T11:18:08.796Z,83.18
2017-10-20T11:18:50.084Z,83.56
2017-10-20T11:19:32.897Z,84.18
2017-10-20T11:20:13.401Z,81.06
2017-10-20T11:20:54.038Z,83.37
2017-10-20T11:21:34.560Z,82.12
2017-10-20T11:22:15.122Z,81.83
2017-10-20T11:22:57.629Z,83.37
2017-10-20T11:23:38.270Z,84.05
2017-10-20T11:24:18.745Z,82.12
2017-10-20T11:24:59.281Z,81.83
2017-10-20T11:25:41.785Z,80.77
2017-10-20T11:26:22.344Z,82.6
2017-10-20T11:27:03.002Z,83.75
2017-10-20T11:27:43.540Z,83.66
2017-10-20T11:28:24.134Z,83.75
2017-10-20T11:29:04.746Z,79.71
2017-10-20T11:29:45.352Z,83.04
2017-10-20T11:30:25.899Z,82.89
2017-10-20T11:31:06.469Z,83.08
2017-10-20T11:31:47.036Z,82.7
2017-10-20T11:32:27.613Z,81.45
2017-10-20T11:33:08.191Z,80.77
2017-10-20T11:33:50.673Z,79.9
2017-10-20T11:34:31.210Z,80.58
2017-10-20T11:35:11.770Z,80.58
2017-10-20T11:35:52.398Z,78.17
2017-10-20T11:36:32.971Z,79.81
2017-10-20T11:37:13.601Z,79.52
2017-10-20T11:37:54.307Z,81.93
2017-10-20T11:38:34.961Z,82.31
2017-10-20T11:39:15.607Z,82.6
2017-10-20T11:39:56.243Z,83.08
2017-10-20T11:40:36.873Z,82.79
2017-10-20T11:41:17.450Z,80.19
2017-10-20T11:41:58.031Z,80.96
2017-10-20T11:42:38.597Z,80.77
2017-10-20T11:43:19.206Z,77.5
2017-10-20T11:43:59.821Z,79.71
2017-10-20T11:44:40.365Z,81.06
2017-10-20T11:45:20.949Z,81.83
2017-10-20T11:46:01.560Z,79.81
2017-10-20T11:46:42.127Z,78.56